createdAt,value
2022-08-27T00:02:17.833Z,13.20
2022-08-27T00:04:48.538Z,13.63
2022-08-27T00:07:17.358Z,13.13
2022-08-27T00:09:45.981Z,13.82
2022-08-27T00:12:14.521Z,12.73
2022-08-27T00:14:42.973Z,13.80
2022-08-27T00:17:11.566Z,14.43
2022-08-27T00:19:41.142Z,13.45
2022-08-27T00:22:12.182Z,16.15
2022-08-27T00:24:48.500Z,14.43
2022-08-27T00:27:18.241Z,14.30
2022-08-27T00:29:47.348Z,13.35
2022-08-27T00:32:15.951Z,14.40
2022-08-27T00:34:44.761Z,15.85
2022-08-27T00:37:14.851Z,14.02
2022-08-27T00:39:43.379Z,14.60
2022-08-27T00:42:12.222Z,14.25
2022-08-27T00:44:40.901Z,13.57
2022-08-27T00:47:14.047Z,13.55
2022-08-27T00:49:46.796Z,16.35
2022-08-27T00:52:22.147Z,16.63
2022-08-27T00:54:53.623Z,15.43
2022-08-27T00:57:22.471Z,15.35
2022-08-27T00:59:50.995Z,16.08
2022-08-27T01:02:26.297Z,15.43
2022-08-27T01:05:00.125Z,15.77
2022-08-27T01:07:33.255Z,15.75
2022-08-27T01:10:04.081Z,17.98
2022-08-27T01:12:35.006Z,17.88
2022-08-27T01:15:10.961Z,16.70
2022-08-27T01:17:41.574Z,16.63
2022-08-27T01:20:15.988Z,15.27
2022-08-27T01:22:54.733Z,14.60
2022-08-27T01:25:26.772Z,15.15
2022-08-27T01:28:00.761Z,15.23
2022-08-27T01:30:29.853Z,14.93
2022-08-27T01:32:58.881Z,15.25
2022-08-27T01:35:27.864Z,15.18
2022-08-27T01:37:57.072Z,15.02
2022-08-27T01:40:27.548Z,15.60
2022-08-27T01:42:58.405Z,14.20
2022-08-27T01:45:29.749Z,16.05
2022-08-27T01:47:59.874Z,15.38
2022-08-27T01:50:31.993Z,15.95
2022-08-27T01:53:04.024Z,17.08
2022-08-27T01:55:34.126Z,17.60
2022-08-27T01:58:02.656Z,18.58
2022-08-27T02:00:34.044Z,18.98
2022-08-27T02:03:02.826Z,17.77
2022-08-27T02:05:31.860Z,16.33
2022-08-27T02:08:13.692Z,15.88
2022-08-27T02:10:44.988Z,16.60
2022-08-27T02:13:13.962Z,16.83
2022-08-27T02:15:43.832Z,14.65
2022-08-27T02:18:14.046Z,15.98
2022-08-27T02:20:42.936Z,17.55
2022-08-27T02:23:11.455Z,16.40
2022-08-27T02:25:41.029Z,17.38
2022-08-27T02:28:11.601Z,17.88
2022-08-27T02:30:40.771Z,16.50
2022-08-27T02:33:09.299Z,17.02
2022-08-27T02:35:40.126Z,16.20
2022-08-27T02:38:09.401Z,16.60
2022-08-27T02:40:38.527Z,17.17
2022-08-27T02:43:07.781Z,17.75
2022-08-27T02:45:37.994Z,19.08
2022-08-27T02:48:07.961Z,19.35
2022-08-27T02:50:37.183Z,16.23
2022-08-27T02:53:07.270Z,17.10
2022-08-27T02:55:35.891Z,20.67
2022-08-27T02:58:06.066Z,18.83
2022-08-27T03:00:34.775Z,16.80
2022-08-27T03:03:04.779Z,17.23
2022-08-27T03:05:33.522Z,19.55
2022-08-27T03:08:03.679Z,18.45
2022-08-27T03:10:32.261Z,19.88
2022-08-27T03:13:00.725Z,19.13
2022-08-27T03:15:29.768Z,22.63
2022-08-27T03:18:15.673Z,22.77
2022-08-27T03:20:48.218Z,21.05
2022-08-27T03:23:17.936Z,23.65
2022-08-27T03:25:49.427Z,23.75
2022-08-27T03:28:23.360Z,23.45
2022-08-27T03:30:54.580Z,24.08
2022-08-27T03:33:23.478Z,25.00
2022-08-27T03:35:54.012Z,23.35
2022-08-27T03:38:22.869Z,22.00
2022-08-27T03:40:52.568Z,24.10
2022-08-27T03:43:22.393Z,24.23
2022-08-27T03:46:00.522Z,23.65
2022-08-27T03:48:32.158Z,27.02
2022-08-27T03:51:06.893Z,27.80
2022-08-27T03:53:35.744Z,28.05
2022-08-27T03:56:06.420Z,29.25
2022-08-27T03:58:35.621Z,28.33
2022-08-27T04:01:05.194Z,30.00
2022-08-27T04:03:34.407Z,29.50
2022-08-27T04:06:04.802Z,32.75
2022-08-27T04:08:33.527Z,32.55
2022-08-27T04:11:01.970Z,35.78
2022-08-27T04:13:30.494Z,33.60
2022-08-27T04:15:59.012Z,32.80
2022-08-27T04:18:27.605Z,34.78
2022-08-27T04:20:56.957Z,30.67
2022-08-27T04:23:26.806Z,29.70
2022-08-27T04:25:55.324Z,29.55
2022-08-27T04:28:24.541Z,26.65
2022-08-27T04:30:53.107Z,27.80
2022-08-27T04:33:21.649Z,26.58
2022-08-27T04:35:59.273Z,25.08
2022-08-27T04:38:29.502Z,28.00
2022-08-27T04:41:15.514Z,27.38
2022-08-27T04:43:44.201Z,24.48
2022-08-27T04:46:12.918Z,25.83
2022-08-27T04:48:41.436Z,23.52
2022-08-27T04:51:09.896Z,26.95
2022-08-27T04:53:43.026Z,29.23
2022-08-27T04:56:15.400Z,29.45
2022-08-27T04:58:44.346Z,30.42
2022-08-27T05:01:18.171Z,35.50
2022-08-27T05:03:47.238Z,36.67
2022-08-27T05:06:16.486Z,38.22
2022-08-27T05:08:46.646Z,38.10
2022-08-27T05:11:17.170Z,47.58
2022-08-27T05:13:47.334Z,43.97
2022-08-27T05:16:19.600Z,43.95
2022-08-27T05:18:50.720Z,47.20
2022-08-27T05:21:20.810Z,47.50
2022-08-27T05:23:51.058Z,50.75
2022-08-27T05:26:19.775Z,46.72
2022-08-27T05:28:49.538Z,46.40
2022-08-27T05:31:21.075Z,39.78
2022-08-27T05:33:50.530Z,44.75
2022-08-27T05:36:21.813Z,46.55
2022-08-27T05:38:51.820Z,39.28
2022-08-27T05:41:34.240Z,45.03
2022-08-27T05:44:24.017Z,47.10
2022-08-27T05:46:54.820Z,45.55
2022-08-27T05:49:23.297Z,45.47
2022-08-27T05:51:52.093Z,46.33
2022-08-27T05:54:21.922Z,39.05
2022-08-27T05:56:51.108Z,37.10
2022-08-27T05:59:37.469Z,36.17
2022-08-27T06:02:07.459Z,35.43
2022-08-27T06:04:36.026Z,31.23
2022-08-27T06:07:06.739Z,32.13
2022-08-27T06:09:36.602Z,31.05
2022-08-27T06:12:05.633Z,39.45
2022-08-27T06:14:34.146Z,38.67
2022-08-27T06:17:03.170Z,37.75
2022-08-27T06:19:31.997Z,36.03
2022-08-27T06:22:09.899Z,40.05
2022-08-27T06:24:42.524Z,44.42
2022-08-27T06:27:13.602Z,42.92
2022-08-27T06:29:42.830Z,36.70
2022-08-27T06:32:12.214Z,40.88
2022-08-27T06:34:41.102Z,36.95
2022-08-27T06:37:10.332Z,38.22
2022-08-27T06:39:40.917Z,42.95
2022-08-27T06:42:13.489Z,42.13
2022-08-27T06:44:42.428Z,35.45
2022-08-27T06:47:10.935Z,43.45
2022-08-27T06:49:41.353Z,44.17
2022-08-27T06:52:12.293Z,38.17
2022-08-27T06:54:42.186Z,39.50
2022-08-27T06:57:10.670Z,36.72
2022-08-27T06:59:40.000Z,38.83
2022-08-27T07:02:08.818Z,39.03
2022-08-27T07:04:37.410Z,42.60
2022-08-27T07:07:06.174Z,41.40
2022-08-27T07:09:35.754Z,39.38
2022-08-27T07:12:06.972Z,52.88
2022-08-27T07:14:38.249Z,53.83
2022-08-27T07:17:11.022Z,58.45
2022-08-27T07:19:44.622Z,53.88
2022-08-27T07:22:13.210Z,49.53
2022-08-27T07:24:41.728Z,41.70
2022-08-27T07:27:11.818Z,48.75
2022-08-27T07:29:41.121Z,48.75
2022-08-27T07:32:09.877Z,49.40
2022-08-27T07:34:38.456Z,43.55
2022-08-27T07:37:07.002Z,40.05
2022-08-27T07:39:35.536Z,49.58
2022-08-27T07:42:21.534Z,37.67
2022-08-27T07:44:51.508Z,34.10
2022-08-27T07:47:20.117Z,42.95
2022-08-27T07:49:48.717Z,33.80
2022-08-27T07:52:17.762Z,28.90
2022-08-27T07:54:46.356Z,26.02
2022-08-27T07:57:15.106Z,22.67
2022-08-27T07:59:43.646Z,20.02
2022-08-27T08:02:14.054Z,18.38
2022-08-27T08:04:42.602Z,17.88
2022-08-27T08:07:11.235Z,17.30
2022-08-27T08:09:39.889Z,18.23
2022-08-27T08:12:08.784Z,14.85
2022-08-27T08:14:37.762Z,15.02
2022-08-27T08:17:10.618Z,15.50
2022-08-27T08:19:41.279Z,15.13
2022-08-27T08:22:10.307Z,16.17
2022-08-27T08:24:38.780Z,16.85
2022-08-27T08:27:08.055Z,15.15
2022-08-27T08:29:37.795Z,14.82
2022-08-27T08:32:06.971Z,17.25
2022-08-27T08:34:37.015Z,19.38
2022-08-27T08:37:08.064Z,22.17
2022-08-27T08:39:38.870Z,15.63
2022-08-27T08:42:19.320Z,18.65
2022-08-27T08:44:53.776Z,22.35
2022-08-27T08:47:26.526Z,22.85
2022-08-27T08:50:00.517Z,22.05
2022-08-27T08:52:44.978Z,17.52
2022-08-27T08:55:29.067Z,17.10
2022-08-27T08:58:09.052Z,17.30
2022-08-27T09:00:39.939Z,16.98
2022-08-27T09:03:09.785Z,14.20
2022-08-27T09:05:41.697Z,16.65
2022-08-27T09:08:34.005Z,17.90
2022-08-27T09:11:12.036Z,15.38
2022-08-27T09:13:45.132Z,14.65
2022-08-27T09:16:13.681Z,16.45
2022-08-27T09:18:45.309Z,17.70
2022-08-27T09:21:27.614Z,18.85
2022-08-27T09:24:07.195Z,16.85
2022-08-27T09:26:40.500Z,18.58
2022-08-27T09:29:20.363Z,16.85
2022-08-27T09:31:55.804Z,15.13
2022-08-27T09:34:25.334Z,15.07
2022-08-27T09:37:03.697Z,14.48
2022-08-27T09:39:43.105Z,14.63
2022-08-27T09:42:27.288Z,14.75
2022-08-27T09:44:56.007Z,16.10
2022-08-27T09:47:25.424Z,17.55
2022-08-27T09:50:08.881Z,15.73
2022-08-27T09:52:49.219Z,17.13
2022-08-27T09:55:36.898Z,17.73
2022-08-27T09:58:06.871Z,20.25
2022-08-27T10:00:39.438Z,17.77
2022-08-27T10:03:09.554Z,15.77
2022-08-27T10:05:44.379Z,15.57
2022-08-27T10:08:23.709Z,15.70
2022-08-27T10:10:59.133Z,16.73
2022-08-27T10:13:33.887Z,17.92
2022-08-27T10:16:18.207Z,17.23
2022-08-27T10:18:55.537Z,16.88
2022-08-27T10:24:35.207Z,13.02
2022-08-27T10:27:14.641Z,13.20
2022-08-27T10:29:52.118Z,13.18
2022-08-27T10:32:40.265Z,12.80
2022-08-27T10:35:14.244Z,13.38
2022-08-27T10:37:52.350Z,13.43
2022-08-27T10:40:27.854Z,12.57
2022-08-27T10:43:11.219Z,14.27
2022-08-27T10:45:48.649Z,12.48
2022-08-27T10:48:25.425Z,12.50
2022-08-27T10:51:06.022Z,11.75
2022-08-27T10:53:44.281Z,13.85
2022-08-27T10:56:18.570Z,11.93
2022-08-27T10:59:07.097Z,12.07
2022-08-27T11:01:43.854Z,12.85
2022-08-27T11:04:16.914Z,14.77
2022-08-27T11:06:52.424Z,15.68
2022-08-27T11:09:24.829Z,15.90
2022-08-27T11:12:13.885Z,15.75
2022-08-27T11:14:49.541Z,17.15
2022-08-27T11:17:26.893Z,16.00
2022-08-27T11:20:08.144Z,14.30
2022-08-27T11:22:41.853Z,14.35
2022-08-27T11:25:28.738Z,14.85
2022-08-27T11:27:59.250Z,15.50
2022-08-27T11:30:40.091Z,14.98
2022-08-27T11:33:17.137Z,13.57
2022-08-27T11:36:03.462Z,13.45
2022-08-27T11:38:45.917Z,14.38
2022-08-27T11:41:30.016Z,12.20
2022-08-27T11:44:15.024Z,11.38
2022-08-27T11:46:48.737Z,13.20
2022-08-27T11:49:28.245Z,12.32
2022-08-27T11:52:03.665Z,12.25
2022-08-27T11:54:45.605Z,13.50
2022-08-27T11:57:27.666Z,13.18
2022-08-27T11:59:56.144Z,13.00
2022-08-27T12:02:28.318Z,12.48
2022-08-27T12:05:09.193Z,12.60
2022-08-27T12:07:40.026Z,14.65
2022-08-27T12:10:21.857Z,13.50
2022-08-27T12:13:00.710Z,14.95
2022-08-27T12:15:44.677Z,13.85
2022-08-27T12:18:37.328Z,13.40
2022-08-27T12:21:19.786Z,13.50
2022-08-27T12:24:04.711Z,12.15
2022-08-27T12:26:35.779Z,11.75
2022-08-27T12:29:29.383Z,11.82
2022-08-27T12:32:06.630Z,12.35
2022-08-27T12:34:45.720Z,11.98
2022-08-27T12:37:14.661Z,11.93
2022-08-27T12:39:49.595Z,11.27
2022-08-27T12:42:21.930Z,11.88
2022-08-27T12:44:56.405Z,11.65
2022-08-27T12:47:25.524Z,12.00
2022-08-27T12:49:58.948Z,11.20
2022-08-27T12:52:53.542Z,12.70
2022-08-27T12:55:35.177Z,11.43
2022-08-27T12:58:15.619Z,11.13
2022-08-27T13:01:13.493Z,11.15
2022-08-27T13:03:46.297Z,11.43
2022-08-27T13:06:21.478Z,10.45
2022-08-27T13:08:54.861Z,12.40
2022-08-27T13:11:27.064Z,12.13
2022-08-27T13:14:07.250Z,12.73
2022-08-27T13:16:39.684Z,12.00
2022-08-27T13:19:09.657Z,11.82
2022-08-27T13:21:39.581Z,11.63
2022-08-27T13:24:08.453Z,12.93
2022-08-27T13:26:39.318Z,13.00
2022-08-27T13:29:09.373Z,12.57
2022-08-27T13:31:39.450Z,12.82
2022-08-27T13:34:08.420Z,12.07
2022-08-27T13:36:52.637Z,13.52
2022-08-27T13:39:23.398Z,14.25
2022-08-27T13:41:52.438Z,12.85
2022-08-27T13:44:24.414Z,14.18
2022-08-27T13:47:00.253Z,13.90
2022-08-27T13:49:32.001Z,13.38
2022-08-27T13:52:04.314Z,12.32
2022-08-27T13:54:33.744Z,12.77
2022-08-27T13:57:08.645Z,13.77
2022-08-27T13:59:43.030Z,12.45
2022-08-27T14:02:25.567Z,13.20
2022-08-27T14:05:11.444Z,11.63
2022-08-27T14:07:47.616Z,12.35
2022-08-27T14:10:34.543Z,14.75
2022-08-27T14:13:07.329Z,13.10
2022-08-27T14:15:38.665Z,12.93
2022-08-27T14:18:09.044Z,17.00
2022-08-27T14:20:37.930Z,15.88
2022-08-27T14:23:07.792Z,14.27
2022-08-27T14:25:36.309Z,13.75
2022-08-27T14:28:05.591Z,13.23
2022-08-27T14:30:34.489Z,12.95
2022-08-27T14:33:03.712Z,13.57
2022-08-27T14:35:34.581Z,15.32
2022-08-27T14:38:09.899Z,14.63
2022-08-27T14:40:38.495Z,13.87
2022-08-27T14:43:07.667Z,14.77
2022-08-27T14:45:37.277Z,13.65
2022-08-27T14:48:08.436Z,14.90
2022-08-27T14:50:47.185Z,16.70
2022-08-27T14:53:17.596Z,15.63
2022-08-27T14:55:46.784Z,14.98
2022-08-27T14:58:20.552Z,15.07
2022-08-27T15:00:49.648Z,18.80
2022-08-27T15:03:20.014Z,16.58
2022-08-27T15:05:48.424Z,14.80
2022-08-27T15:08:19.108Z,16.17
2022-08-27T15:10:47.814Z,15.27
2022-08-27T15:13:16.466Z,14.80
2022-08-27T15:15:45.042Z,13.57
2022-08-27T15:18:13.526Z,10.70
2022-08-27T15:20:42.946Z,12.35
2022-08-27T15:23:13.890Z,10.63
2022-08-27T15:25:46.101Z,11.52
2022-08-27T15:28:14.716Z,11.98
2022-08-27T15:30:43.474Z,12.25
2022-08-27T15:33:12.014Z,12.05
2022-08-27T15:35:40.597Z,12.05
2022-08-27T15:38:09.105Z,12.70
2022-08-27T15:40:38.029Z,11.27
2022-08-27T15:43:09.525Z,10.77
2022-08-27T15:45:38.068Z,11.52
2022-08-27T15:48:07.278Z,11.07
2022-08-27T15:50:36.122Z,9.57
2022-08-27T15:53:07.000Z,10.57
2022-08-27T15:55:37.712Z,12.32
2022-08-27T15:58:08.900Z,11.23
2022-08-27T16:00:39.333Z,11.00
2022-08-27T16:03:11.380Z,10.18
2022-08-27T16:05:42.014Z,12.88
2022-08-27T16:08:11.388Z,11.27
2022-08-27T16:10:40.470Z,11.18
2022-08-27T16:13:10.273Z,11.68
2022-08-27T16:15:40.834Z,10.15
2022-08-27T16:18:11.150Z,11.00
2022-08-27T16:20:40.156Z,12.18
2022-08-27T16:23:08.591Z,16.08
2022-08-27T16:25:37.170Z,15.93
2022-08-27T16:28:05.589Z,14.20
2022-08-27T16:30:35.351Z,14.75
2022-08-27T16:33:04.081Z,13.93
2022-08-27T16:35:32.552Z,14.55
2022-08-27T16:38:00.973Z,15.52
2022-08-27T16:40:29.954Z,16.60
2022-08-27T16:43:01.520Z,16.50
2022-08-27T16:45:30.081Z,18.25
2022-08-27T16:48:17.422Z,18.40
2022-08-27T16:50:45.927Z,19.92
2022-08-27T16:53:16.883Z,22.08
2022-08-27T16:55:46.968Z,23.48
2022-08-27T16:58:19.317Z,23.45
2022-08-27T17:00:50.315Z,25.35
2022-08-27T17:03:22.020Z,23.70
2022-08-27T17:05:51.230Z,22.27
2022-08-27T17:08:21.643Z,23.20
2022-08-27T17:10:56.862Z,27.67
2022-08-27T17:13:28.520Z,29.73
2022-08-27T17:15:57.740Z,26.67
2022-08-27T17:18:28.439Z,27.27
2022-08-27T17:21:00.299Z,29.33
2022-08-27T17:23:34.094Z,28.90
2022-08-27T17:26:03.001Z,28.10
2022-08-27T17:28:31.601Z,26.27
2022-08-27T17:31:01.547Z,28.88
2022-08-27T17:33:33.455Z,28.88
2022-08-27T17:36:01.981Z,29.73
2022-08-27T17:38:32.891Z,29.98
2022-08-27T17:41:07.176Z,32.83
2022-08-27T17:43:35.600Z,32.97
2022-08-27T17:46:04.364Z,31.83
2022-08-27T17:48:34.374Z,33.00
2022-08-27T17:51:03.432Z,34.80
2022-08-27T17:53:31.806Z,34.97
2022-08-27T17:56:01.390Z,30.98
2022-08-27T17:58:30.243Z,33.80
2022-08-27T18:00:58.777Z,34.35
2022-08-27T18:03:27.296Z,31.80
2022-08-27T18:05:57.175Z,31.17
2022-08-27T18:08:25.629Z,32.53
2022-08-27T18:10:54.941Z,34.55
2022-08-27T18:13:23.416Z,36.40
2022-08-27T18:15:52.293Z,36.13
2022-08-27T18:18:20.687Z,34.88
2022-08-27T18:20:49.082Z,34.08
2022-08-27T18:23:21.803Z,34.97
2022-08-27T18:25:51.214Z,35.85
2022-08-27T18:28:22.361Z,36.45
2022-08-27T18:30:51.557Z,38.67
2022-08-27T18:33:20.234Z,35.78
2022-08-27T18:35:48.896Z,38.72
2022-08-27T18:38:21.723Z,38.55
2022-08-27T18:40:51.775Z,39.08
2022-08-27T18:43:22.689Z,36.47
2022-08-27T18:45:51.159Z,37.03
2022-08-27T18:48:22.627Z,37.42
2022-08-27T18:50:55.692Z,39.60
2022-08-27T18:53:26.557Z,37.30
2022-08-27T18:55:55.560Z,38.00
2022-08-27T18:58:24.298Z,37.17
2022-08-27T19:00:56.860Z,38.92
2022-08-27T19:03:29.232Z,36.85
2022-08-27T19:05:58.082Z,39.97
2022-08-27T19:08:30.760Z,40.78
2022-08-27T19:10:59.197Z,41.40
2022-08-27T19:13:27.869Z,37.85
2022-08-27T19:16:00.090Z,41.83
2022-08-27T19:18:30.749Z,43.97
2022-08-27T19:20:59.248Z,41.53
2022-08-27T19:23:28.223Z,39.00
2022-08-27T19:25:59.479Z,38.60
2022-08-27T19:28:33.003Z,35.88
2022-08-27T19:31:01.404Z,35.50
2022-08-27T19:33:29.845Z,38.38
2022-08-27T19:35:58.593Z,37.58
2022-08-27T19:38:29.687Z,38.55
2022-08-27T19:41:00.495Z,37.63
2022-08-27T19:43:29.224Z,36.38
2022-08-27T19:45:59.650Z,41.33
2022-08-27T19:48:28.243Z,38.22
2022-08-27T19:50:57.176Z,39.85
2022-08-27T19:53:26.111Z,39.60
2022-08-27T19:55:54.860Z,39.70
2022-08-27T19:58:25.045Z,42.58
2022-08-27T20:00:53.625Z,41.92
2022-08-27T20:03:22.136Z,43.78
2022-08-27T20:05:52.783Z,45.67
2022-08-27T20:08:21.406Z,47.53
2022-08-27T20:10:50.279Z,48.80
2022-08-27T20:13:19.689Z,45.50
2022-08-27T20:15:51.874Z,44.90
2022-08-27T20:18:20.392Z,44.75
2022-08-27T20:20:49.423Z,40.10
2022-08-27T20:23:18.241Z,40.95
2022-08-27T20:25:46.786Z,43.33
2022-08-27T20:28:38.481Z,39.08
2022-08-27T20:31:05.212Z,40.75
2022-08-27T20:33:34.287Z,40.20
2022-08-27T20:36:03.228Z,38.13
2022-08-27T20:38:31.702Z,40.70
2022-08-27T20:41:00.121Z,38.35
2022-08-27T20:43:28.814Z,42.05
2022-08-27T20:45:57.715Z,42.72
2022-08-27T20:48:28.427Z,42.13
2022-08-27T20:50:57.334Z,42.10
2022-08-27T20:53:26.128Z,39.83
2022-08-27T20:55:56.618Z,42.63
2022-08-27T20:58:42.910Z,42.53
2022-08-27T21:01:12.033Z,41.40
2022-08-27T21:03:42.016Z,45.75
2022-08-27T21:06:10.522Z,45.20
2022-08-27T21:08:40.027Z,46.05
2022-08-27T21:11:10.978Z,41.67
2022-08-27T21:13:55.342Z,46.17
2022-08-27T21:16:25.360Z,44.90
2022-08-27T21:18:55.830Z,45.15
2022-08-27T21:21:24.642Z,47.33
2022-08-27T21:23:53.049Z,46.45
2022-08-27T21:26:23.165Z,45.47
2022-08-27T21:28:55.811Z,45.17
2022-08-27T21:31:25.463Z,48.78
2022-08-27T21:33:55.406Z,46.80
2022-08-27T21:36:24.468Z,44.85
2022-08-27T21:38:53.111Z,45.15
2022-08-27T21:41:21.724Z,45.67
2022-08-27T21:43:50.619Z,45.53
2022-08-27T21:46:19.728Z,47.30
2022-08-27T21:48:48.415Z,47.50
2022-08-27T21:51:28.751Z,48.00
2022-08-27T21:53:58.811Z,46.40
2022-08-27T21:56:27.885Z,48.30
2022-08-27T21:58:56.360Z,47.78
2022-08-27T22:01:24.887Z,45.83
2022-08-27T22:03:53.406Z,45.97
2022-08-27T22:06:22.328Z,46.08
2022-08-27T22:08:52.179Z,47.28
2022-08-27T22:11:23.988Z,48.92
2022-08-27T22:13:53.129Z,48.67
2022-08-27T22:16:21.723Z,48.00
2022-08-27T22:18:54.525Z,50.75
2022-08-27T22:21:24.154Z,45.45
2022-08-27T22:23:54.076Z,44.78
2022-08-27T22:26:23.367Z,47.00
2022-08-27T22:28:51.915Z,50.28
2022-08-27T22:31:20.516Z,46.85
2022-08-27T22:33:49.122Z,49.72
2022-08-27T22:36:17.648Z,48.38
2022-08-27T22:38:46.265Z,50.88
2022-08-27T22:41:18.461Z,47.28
2022-08-27T22:43:47.431Z,45.30
2022-08-27T22:46:16.114Z,46.53
2022-08-27T22:48:44.588Z,44.95
2022-08-27T22:51:13.085Z,45.53
2022-08-27T22:53:41.519Z,47.58
2022-08-27T22:56:10.136Z,46.88
2022-08-27T22:58:40.789Z,47.45
2022-08-27T23:01:14.791Z,44.45
2022-08-27T23:03:43.293Z,45.85
2022-08-27T23:06:11.838Z,44.35
2022-08-27T23:08:40.917Z,47.63
2022-08-27T23:11:09.451Z,42.63
2022-08-27T23:13:41.256Z,44.38
2022-08-27T23:16:10.563Z,42.72
2022-08-27T23:18:39.967Z,42.08
2022-08-27T23:21:09.904Z,42.78
2022-08-27T23:23:39.486Z,45.03
2022-08-27T23:26:25.647Z,43.03
2022-08-27T23:28:56.390Z,44.88
2022-08-27T23:31:24.920Z,44.05
2022-08-27T23:33:54.013Z,40.97
2022-08-27T23:36:22.525Z,41.53
2022-08-27T23:38:51.132Z,43.58
2022-08-27T23:41:19.618Z,40.50
2022-08-27T23:43:48.091Z,38.95
2022-08-27T23:46:18.076Z,39.72
2022-08-27T23:48:46.505Z,41.75
2022-08-27T23:51:14.959Z,41.70
2022-08-27T23:53:43.458Z,39.58
2022-08-27T23:56:11.977Z,39.38
2022-08-27T23:58:40.516Z,36.78
